Time;durP1;ratioP1;P1;durP2;ratioP2;P2;SDS_P1;SDS_P2;PMS_P1;PMS_P2;Temp;Humidity;BMP_temperature;BMP_pressure;BME280_temperature;BME280_humidity;BME280_pressure;Samples;Min_cycle;Max_cycle;Signal;HPM_P1;HPM_P2
2021/03/08 00:00:33;;;;;;;28.48;15.18;;;3.00;99.90;;;;;;4883800;29;20036;-93
2021/03/08 00:03:00;;;;;;;35.58;16.70;;;3.00;99.90;;;;;;4883248;29;20025;-92
2021/03/08 00:05:25;;;;;;;40.65;18.52;;;2.90;99.90;;;;;;4884076;29;20121;-94
2021/03/08 00:07:51;;;;;;;39.28;17.88;;;2.80;99.90;;;;;;4884000;29;20060;-92
2021/03/08 00:10:19;;;;;;;36.55;17.90;;;2.80;99.90;;;;;;4883775;29;20033;-92
2021/03/08 00:12:46;;;;;;;31.15;15.27;;;2.70;99.90;;;;;;4882905;29;20044;-91
2021/03/08 00:15:13;;;;;;;31.77;16.40;;;2.60;99.90;;;;;;4883361;29;20469;-92
2021/03/08 00:17:39;;;;;;;35.95;17.67;;;2.60;99.90;;;;;;4883076;29;20041;-92
2021/03/08 00:20:08;;;;;;;37.55;16.85;;;2.60;99.90;;;;;;4882763;29;20150;-92
2021/03/08 00:22:34;;;;;;;43.17;18.40;;;2.50;99.90;;;;;;4881830;29;20033;-92
2021/03/08 00:25:00;;;;;;;33.70;17.40;;;2.50;99.90;;;;;;4882959;29;20096;-94
2021/03/08 00:27:25;;;;;;;35.83;16.92;;;2.40;99.90;;;;;;4899895;29;20041;-93
2021/03/08 00:29:51;;;;;;;38.47;17.23;;;2.40;99.90;;;;;;4882760;29;20060;-92
2021/03/08 00:32:17;;;;;;;28.55;14.35;;;2.40;99.90;;;;;;4884032;29;20081;-92
2021/03/08 00:34:42;;;;;;;30.75;15.50;;;2.40;99.90;;;;;;4884141;29;20048;-92
2021/03/08 00:37:08;;;;;;;32.97;15.65;;;2.30;99.90;;;;;;4898686;29;20036;-92
2021/03/08 00:39:34;;;;;;;32.80;14.82;;;2.30;99.90;;;;;;4899390;29;20035;-93
2021/03/08 00:41:59;;;;;;;38.30;15.70;;;2.30;99.90;;;;;;4893532;29;20503;-93
2021/03/08 00:44:25;;;;;;;37.72;18.00;;;2.40;99.90;;;;;;4883005;29;20052;-93
2021/03/08 00:46:51;;;;;;;29.60;15.80;;;2.40;99.90;;;;;;4883046;29;20024;-94
2021/03/08 00:49:17;;;;;;;32.72;16.00;;;2.40;99.90;;;;;;4898505;29;20035;-92
2021/03/08 00:51:43;;;;;;;29.42;15.60;;;2.50;99.90;;;;;;4882189;29;20028;-91
2021/03/08 00:54:08;;;;;;;37.53;16.23;;;2.50;99.90;;;;;;4881727;29;20096;-94
2021/03/08 00:56:34;;;;;;;31.33;16.27;;;2.50;99.90;;;;;;4882281;29;20040;-92
2021/03/08 00:58:59;;;;;;;29.33;15.07;;;2.50;99.90;;;;;;4882634;29;20029;-92
2021/03/08 01:01:26;;;;;;;27.27;15.27;;;2.60;99.90;;;;;;4883081;29;20045;-92
2021/03/08 01:03:51;;;;;;;30.08;14.68;;;2.60;99.90;;;;;;4882901;29;20108;-94
2021/03/08 01:06:17;;;;;;;33.50;16.55;;;2.70;99.90;;;;;;4884093;29;20036;-91
2021/03/08 01:08:42;;;;;;;31.58;15.57;;;2.70;99.90;;;;;;4884662;29;20036;-94
2021/03/08 01:11:09;;;;;;;29.95;16.10;;;2.70;99.90;;;;;;4883694;29;20036;-94
2021/03/08 01:13:35;;;;;;;38.67;17.63;;;2.80;99.90;;;;;;4883374;29;20075;-92
2021/03/08 01:16:00;;;;;;;35.63;17.80;;;2.80;99.90;;;;;;4881615;29;20042;-94
2021/03/08 01:18:26;;;;;;;29.67;17.35;;;2.70;99.90;;;;;;4865777;29;20029;-94
2021/03/08 01:20:52;;;;;;;41.35;17.75;;;2.70;99.90;;;;;;4864636;29;20064;-93
2021/03/08 01:23:17;;;;;;;27.98;14.68;;;2.70;99.90;;;;;;4864094;29;20029;-93
2021/03/08 01:25:43;;;;;;;43.15;17.27;;;2.70;99.90;;;;;;4880095;29;20048;-95
2021/03/08 01:28:09;;;;;;;32.15;16.40;;;2.70;99.90;;;;;;4862982;29;20061;-93
2021/03/08 01:30:44;;;;;;;31.02;15.32;;;2.70;99.90;;;;;;4864748;29;20118;-93
2021/03/08 01:33:10;;;;;;;31.45;14.90;;;2.70;99.90;;;;;;4864290;29;20033;-93
2021/03/08 01:35:36;;;;;;;26.02;14.88;;;2.80;99.90;;;;;;4864254;29;20041;-94
2021/03/08 01:38:03;;;;;;;31.33;14.80;;;2.80;99.90;;;;;;4864409;29;20495;-94
2021/03/08 01:40:31;;;;;;;28.95;14.85;;;2.80;99.90;;;;;;4863968;29;20037;-94
2021/03/08 01:42:58;;;;;;;24.52;13.23;;;2.80;99.90;;;;;;4864155;29;20029;-90
2021/03/08 01:45:24;;;;;;;23.85;12.57;;;2.80;99.90;;;;;;4859828;29;20025;-94
2021/03/08 01:47:50;;;;;;;21.65;12.52;;;2.80;99.90;;;;;;4863486;29;20051;-94
2021/03/08 01:50:36;;;;;;;25.17;14.68;;;2.90;99.90;;;;;;4863899;29;20040;-95
2021/03/08 01:53:04;;;;;;;31.38;14.05;;;3.00;99.90;;;;;;4856323;29;20120;-95
2021/03/08 01:55:30;;;;;;;29.60;15.23;;;3.00;99.90;;;;;;4865948;29;20044;-94
2021/03/08 01:57:56;;;;;;;31.02;15.88;;;3.10;99.90;;;;;;4867426;29;20040;-94
2021/03/08 02:00:26;;;;;;;31.25;14.93;;;3.10;99.90;;;;;;4884761;29;20033;-93
2021/03/08 02:02:52;;;;;;;33.53;16.55;;;3.00;99.90;;;;;;4882090;29;20116;-92
2021/03/08 02:05:21;;;;;;;33.20;16.23;;;3.10;99.90;;;;;;4882106;29;20032;-93
2021/03/08 02:07:47;;;;;;;48.13;18.85;;;3.00;99.90;;;;;;4865613;29;20037;-93
2021/03/08 02:10:15;;;;;;;56.22;21.02;;;2.90;99.90;;;;;;4865597;29;20051;-92
2021/03/08 02:12:46;;;;;;;51.03;19.05;;;2.90;99.90;;;;;;4865334;29;20044;-93
2021/03/08 02:15:17;;;;;;;53.63;18.45;;;2.90;99.90;;;;;;4864920;29;20076;-93
2021/03/08 02:18:05;;;;;;;50.15;20.67;;;2.80;99.90;;;;;;4864633;29;20033;-93
2021/03/08 02:20:45;;;;;;;46.38;17.83;;;2.80;99.90;;;;;;4868131;29;20033;-91
2021/03/08 02:23:29;;;;;;;49.47;18.67;;;2.70;99.90;;;;;;4882540;29;20048;-93
2021/03/08 02:26:07;;;;;;;40.85;20.02;;;2.70;99.90;;;;;;4896819;29;20037;-92
2021/03/08 02:28:44;;;;;;;43.03;18.60;;;2.70;99.90;;;;;;4882851;29;20041;-91
2021/03/08 02:31:16;;;;;;;36.13;18.20;;;2.70;99.90;;;;;;4883235;29;20037;-94
2021/03/08 02:33:51;;;;;;;38.95;18.00;;;2.70;99.90;;;;;;4882600;29;20068;-92
2021/03/08 02:36:18;;;;;;;38.65;17.63;;;2.70;99.90;;;;;;4882555;29;20040;-94
2021/03/08 02:38:50;;;;;;;35.17;18.70;;;2.80;99.90;;;;;;4882479;29;20498;-91
2021/03/08 02:41:20;;;;;;;38.25;18.08;;;2.80;99.90;;;;;;4884741;29;20525;-94
2021/03/08 02:43:51;;;;;;;42.15;17.45;;;2.80;99.90;;;;;;4885362;29;20037;-93
2021/03/08 02:46:27;;;;;;;38.58;17.42;;;2.90;99.90;;;;;;4876734;29;20168;-92
2021/03/08 02:48:56;;;;;;;38.47;15.60;;;2.90;99.90;;;;;;4866443;29;20041;-94
2021/03/08 02:51:25;;;;;;;39.90;16.77;;;2.90;99.90;;;;;;4866807;29;20032;-94
2021/03/08 02:53:53;;;;;;;37.20;17.35;;;2.90;99.90;;;;;;4865922;29;20033;-94
2021/03/08 02:56:22;;;;;;;32.95;16.17;;;2.90;99.90;;;;;;4866879;29;20033;-92
2021/03/08 02:58:50;;;;;;;37.85;17.25;;;2.90;99.90;;;;;;4866177;29;20033;-92
2021/03/08 03:01:21;;;;;;;33.30;16.42;;;2.90;99.90;;;;;;4882694;29;20035;-94
2021/03/08 03:03:51;;;;;;;38.88;17.38;;;2.90;99.90;;;;;;4890345;29;20022;-93
2021/03/08 03:06:19;;;;;;;33.43;16.40;;;2.90;99.90;;;;;;4884481;29;20330;-94
2021/03/08 03:08:46;;;;;;;26.25;12.15;;;2.90;99.90;;;;;;4866727;29;20041;-93
2021/03/08 03:11:12;;;;;;;37.85;16.60;;;2.90;99.90;;;;;;4883407;29;20053;-94
2021/03/08 03:13:41;;;;;;;33.08;17.02;;;2.90;99.90;;;;;;4865748;29;20109;-95
2021/03/08 03:16:09;;;;;;;46.92;18.30;;;2.90;99.90;;;;;;4868033;29;20456;-93
2021/03/08 03:18:36;;;;;;;45.70;18.77;;;2.90;99.90;;;;;;4887395;29;20040;-94
2021/03/08 03:21:05;;;;;;;39.35;15.85;;;2.90;99.90;;;;;;4883782;29;20040;-93
2021/03/08 03:23:34;;;;;;;37.33;16.38;;;2.80;99.90;;;;;;4900597;29;20029;-94
2021/03/08 03:26:01;;;;;;;29.17;14.93;;;2.80;99.90;;;;;;4884477;29;20115;-93
2021/03/08 03:28:28;;;;;;;28.50;14.63;;;2.80;99.90;;;;;;4884542;29;20383;-93
2021/03/08 03:30:55;;;;;;;25.50;13.90;;;2.80;99.90;;;;;;4901295;29;20036;-95
2021/03/08 03:33:21;;;;;;;40.20;16.98;;;2.80;99.90;;;;;;4884575;29;20059;-95
2021/03/08 03:35:47;;;;;;;46.65;19.60;;;2.80;99.90;;;;;;4885020;29;20082;-94
2021/03/08 03:38:15;;;;;;;37.70;19.77;;;2.80;99.90;;;;;;4884722;29;20028;-94
2021/03/08 03:40:41;;;;;;;35.45;17.15;;;2.80;99.90;;;;;;4884620;29;20029;-94
2021/03/08 03:43:06;;;;;;;34.97;17.15;;;2.70;99.90;;;;;;4884088;29;20032;-94
2021/03/08 03:45:32;;;;;;;43.17;18.13;;;2.70;99.90;;;;;;4884239;29;20028;-94
2021/03/08 03:47:57;;;;;;;36.50;18.42;;;2.60;99.90;;;;;;4888300;29;20029;-94
2021/03/08 03:50:25;;;;;;;38.15;18.08;;;2.50;99.90;;;;;;4900498;29;20402;-93
2021/03/08 03:52:51;;;;;;;34.75;16.73;;;2.40;99.90;;;;;;4883763;29;20467;-93
2021/03/08 03:55:18;;;;;;;37.03;16.73;;;2.40;99.90;;;;;;4883697;29;20246;-94
2021/03/08 03:57:50;;;;;;;28.38;14.32;;;2.30;99.90;;;;;;4883235;29;20052;-93
2021/03/08 04:00:22;;;;;;;37.53;16.85;;;2.30;99.90;;;;;;4900614;29;20029;-95
2021/03/08 04:03:09;;;;;;;32.28;16.80;;;2.40;99.90;;;;;;4884563;29;20485;-94
2021/03/08 04:05:36;;;;;;;37.55;16.80;;;2.30;99.90;;;;;;4889351;29;20519;-94
2021/03/08 04:08:05;;;;;;;33.72;15.23;;;2.30;99.90;;;;;;4896668;29;20044;-95
2021/03/08 04:10:31;;;;;;;33.83;17.02;;;2.30;99.90;;;;;;4894461;29;20040;-93
2021/03/08 04:13:05;;;;;;;35.78;16.15;;;2.30;99.90;;;;;;4885617;29;20025;-92
2021/03/08 04:15:32;;;;;;;28.30;14.43;;;2.40;99.90;;;;;;4884968;29;20049;-92
2021/03/08 04:18:01;;;;;;;33.42;17.05;;;2.40;99.90;;;;;;4884393;29;20617;-93
2021/03/08 04:20:30;;;;;;;33.95;17.92;;;2.40;99.90;;;;;;4884125;29;20487;-94
2021/03/08 04:22:58;;;;;;;42.60;17.80;;;2.40;99.90;;;;;;4884270;29;20044;-94
2021/03/08 04:25:25;;;;;;;25.73;13.00;;;2.40;99.90;;;;;;4884084;29;20029;-94
2021/03/08 04:27:52;;;;;;;32.65;15.98;;;2.40;99.90;;;;;;4883293;29;20127;-92
2021/03/08 04:30:19;;;;;;;34.53;16.30;;;2.40;99.90;;;;;;4883304;29;20104;-95
2021/03/08 04:32:49;;;;;;;35.83;17.30;;;2.40;99.90;;;;;;4884041;29;20092;-92
2021/03/08 04:35:18;;;;;;;32.95;15.85;;;2.50;99.90;;;;;;4883269;29;20044;-94
2021/03/08 04:37:45;;;;;;;36.45;17.63;;;2.50;99.90;;;;;;4885034;29;20024;-93
2021/03/08 04:40:14;;;;;;;35.85;17.25;;;2.50;99.90;;;;;;4887992;29;20123;-93
2021/03/08 04:42:41;;;;;;;35.70;17.65;;;2.60;99.90;;;;;;4882888;29;20057;-93
2021/03/08 04:45:08;;;;;;;41.70;17.98;;;2.70;99.90;;;;;;4882222;29;20029;-92
2021/03/08 04:47:35;;;;;;;38.88;19.58;;;2.80;99.90;;;;;;4882590;29;20387;-94
2021/03/08 04:50:02;;;;;;;35.10;16.88;;;2.80;99.90;;;;;;4883006;29;20028;-93
2021/03/08 04:52:28;;;;;;;41.28;19.08;;;2.90;99.90;;;;;;4888044;29;20039;-93
2021/03/08 04:54:55;;;;;;;32.60;16.85;;;2.90;99.90;;;;;;4890566;29;20040;-94
2021/03/08 04:57:22;;;;;;;37.28;17.85;;;2.90;99.90;;;;;;4888808;29;20036;-92
2021/03/08 04:59:50;;;;;;;34.80;18.92;;;2.90;99.90;;;;;;4889711;29;20044;-93
2021/03/08 05:02:19;;;;;;;40.80;17.60;;;2.90;99.90;;;;;;4887626;29;20039;-94
2021/03/08 05:04:48;;;;;;;38.65;17.80;;;2.90;99.90;;;;;;4885949;29;20037;-93
2021/03/08 05:07:19;;;;;;;28.25;14.80;;;2.90;99.90;;;;;;4883675;29;20486;-93
2021/03/08 05:09:47;;;;;;;33.83;17.08;;;2.90;99.90;;;;;;4883031;29;20052;-93
2021/03/08 05:12:13;;;;;;;38.47;16.40;;;3.00;99.90;;;;;;4883183;29;20353;-93
2021/03/08 05:14:41;;;;;;;33.72;18.33;;;3.00;99.90;;;;;;4882652;29;20538;-93
2021/03/08 05:17:08;;;;;;;33.67;15.23;;;2.90;99.90;;;;;;4882963;29;20487;-92
2021/03/08 05:19:38;;;;;;;28.25;14.60;;;2.90;99.90;;;;;;4882315;29;20502;-92
2021/03/08 05:22:04;;;;;;;33.53;17.60;;;3.00;99.90;;;;;;4883077;29;20057;-94
2021/03/08 05:24:30;;;;;;;25.25;13.82;;;3.00;99.90;;;;;;4882698;29;20178;-94
2021/03/08 05:26:57;;;;;;;29.25;16.45;;;3.00;99.90;;;;;;4882273;29;20107;-93
2021/03/08 05:29:23;;;;;;;36.15;16.63;;;3.10;99.90;;;;;;4899589;29;20112;-93
2021/03/08 05:31:51;;;;;;;33.08;15.30;;;3.10;99.90;;;;;;4899118;29;20028;-93
2021/03/08 05:34:18;;;;;;;25.23;13.68;;;3.20;99.90;;;;;;4883064;29;20036;-94
2021/03/08 05:36:48;;;;;;;27.10;14.40;;;3.20;99.90;;;;;;4881960;29;20554;-95
2021/03/08 05:39:17;;;;;;;23.90;13.13;;;3.30;99.90;;;;;;4898897;29;20033;-93
2021/03/08 05:42:15;;;;;;;27.38;13.18;;;3.30;99.90;;;;;;4860054;29;20136;-93
2021/03/08 05:45:00;;;;;;;25.75;12.98;;;3.30;99.90;;;;;;4831681;29;20195;-94
2021/03/08 05:48:03;;;;;;;30.45;14.52;;;3.40;99.90;;;;;;4846526;29;20500;-95
2021/03/08 05:50:57;;;;;;;32.22;16.10;;;3.40;99.90;;;;;;4885313;29;20077;-88
2021/03/08 05:53:42;;;;;;;30.23;15.38;;;3.40;99.90;;;;;;4876850;29;20033;-94
2021/03/08 05:56:20;;;;;;;29.25;14.70;;;3.40;99.90;;;;;;4875595;29;20029;-93
2021/03/08 05:59:07;;;;;;;30.45;13.20;;;3.30;99.90;;;;;;4866553;29;20510;-94
2021/03/08 06:02:02;;;;;;;26.13;12.50;;;3.30;99.90;;;;;;4865425;29;20035;-93
2021/03/08 06:05:18;;;;;;;21.95;11.50;;;3.40;99.90;;;;;;4859582;29;20053;-94
2021/03/08 06:08:08;;;;;;;27.60;12.00;;;3.50;99.90;;;;;;4826905;29;20042;-95
2021/03/08 06:10:36;;;;;;;24.83;12.57;;;3.50;99.90;;;;;;4842436;29;20049;-94
2021/03/08 06:13:09;;;;;;;30.95;12.18;;;3.60;99.90;;;;;;4826039;29;20030;-94
2021/03/08 06:15:36;;;;;;;24.80;11.93;;;3.70;99.90;;;;;;4829664;29;20075;-95
2021/03/08 06:18:07;;;;;;;23.45;12.30;;;3.70;99.90;;;;;;4834650;29;20086;-94
2021/03/08 06:20:33;;;;;;;21.52;10.88;;;3.80;99.90;;;;;;4829767;29;20032;-94
2021/03/08 06:23:01;;;;;;;22.60;11.65;;;3.80;99.90;;;;;;4830838;29;20128;-95
2021/03/08 06:25:29;;;;;;;22.23;11.10;;;3.90;99.90;;;;;;4832492;29;20026;-94
2021/03/08 06:27:57;;;;;;;23.13;12.25;;;3.90;99.90;;;;;;4830496;29;20060;-92
2021/03/08 06:30:26;;;;;;;23.50;12.93;;;3.90;99.90;;;;;;4845964;29;20046;-93
2021/03/08 06:32:53;;;;;;;25.98;13.02;;;3.90;99.90;;;;;;4831656;29;20030;-93
2021/03/08 06:35:18;;;;;;;26.65;13.40;;;3.90;99.90;;;;;;4848916;29;20048;-95
2021/03/08 06:37:46;;;;;;;23.13;10.65;;;4.00;99.90;;;;;;4831602;29;20485;-93
2021/03/08 06:40:15;;;;;;;24.52;12.77;;;4.00;99.90;;;;;;4844148;29;20106;-94
2021/03/08 06:42:43;;;;;;;21.80;11.10;;;4.00;99.90;;;;;;4854388;29;20168;-93
2021/03/08 06:45:09;;;;;;;27.60;11.05;;;4.00;99.90;;;;;;4884417;29;20033;-94
2021/03/08 06:47:35;;;;;;;21.23;12.05;;;4.00;99.90;;;;;;4866353;29;20017;-93
2021/03/08 06:50:02;;;;;;;20.95;10.63;;;4.00;99.90;;;;;;4866493;29;20040;-93
2021/03/08 06:52:42;;;;;;;27.90;11.88;;;4.10;99.90;;;;;;4869977;29;20049;-93
2021/03/08 06:55:08;;;;;;;21.75;11.80;;;4.10;99.90;;;;;;4875185;29;20100;-94
2021/03/08 06:57:38;;;;;;;25.08;13.07;;;4.20;99.90;;;;;;4867409;29;20055;-94
2021/03/08 07:00:12;;;;;;;21.35;10.70;;;4.20;99.90;;;;;;4866615;29;20116;-94
2021/03/08 07:02:41;;;;;;;22.42;10.32;;;4.20;99.90;;;;;;4862877;29;20112;-93
2021/03/08 07:05:08;;;;;;;22.80;13.02;;;4.20;99.90;;;;;;4864811;29;20514;-93
2021/03/08 07:07:48;;;;;;;24.88;12.02;;;4.20;99.90;;;;;;4863775;29;20223;-94
2021/03/08 07:10:15;;;;;;;25.98;12.25;;;4.30;99.90;;;;;;4864144;29;20037;-94
2021/03/08 07:12:51;;;;;;;25.17;12.20;;;4.30;99.90;;;;;;4865027;29;20025;-94
2021/03/08 07:15:17;;;;;;;33.85;14.05;;;4.30;99.90;;;;;;4881849;29;20085;-95
2021/03/08 07:17:43;;;;;;;22.88;11.82;;;4.40;99.90;;;;;;4865215;29;20025;-93
2021/03/08 07:20:10;;;;;;;20.08;11.02;;;4.40;99.90;;;;;;4866577;29;20033;-94
2021/03/08 07:22:47;;;;;;;24.05;12.45;;;4.40;99.90;;;;;;4865368;29;20105;-94
2021/03/08 07:25:30;;;;;;;29.20;12.20;;;4.40;99.90;;;;;;4881296;29;20028;-94
2021/03/08 07:27:59;;;;;;;30.25;14.57;;;4.40;99.90;;;;;;4880754;29;20037;-94
2021/03/08 07:30:28;;;;;;;22.80;12.85;;;4.40;99.90;;;;;;4865797;29;20513;-92
2021/03/08 07:32:57;;;;;;;24.80;12.23;;;4.50;99.90;;;;;;4865420;29;20037;-94
2021/03/08 07:35:39;;;;;;;20.02;11.38;;;4.50;99.90;;;;;;4865852;29;20041;-94
2021/03/08 07:38:06;;;;;;;25.75;13.15;;;4.50;99.90;;;;;;4888001;29;20021;-94
2021/03/08 07:40:36;;;;;;;28.83;14.93;;;4.50;99.90;;;;;;4880992;29;20386;-89
2021/03/08 07:43:02;;;;;;;32.35;14.52;;;4.50;99.90;;;;;;4884100;29;20029;-91
2021/03/08 07:45:42;;;;;;;28.27;13.93;;;4.50;99.90;;;;;;4869941;29;20035;-90
2021/03/08 07:48:12;;;;;;;26.60;12.93;;;4.60;99.90;;;;;;4861081;29;20037;-91
2021/03/08 07:50:38;;;;;;;22.40;12.77;;;4.60;99.90;;;;;;4883866;29;20049;-91
2021/03/08 07:53:28;;;;;;;20.90;11.82;;;4.60;99.90;;;;;;4887001;29;20084;-90
2021/03/08 07:55:55;;;;;;;27.08;14.32;;;4.60;99.90;;;;;;4876430;29;20551;-93
2021/03/08 07:58:28;;;;;;;27.52;13.35;;;4.70;99.90;;;;;;4873813;29;20032;-93
2021/03/08 08:00:55;;;;;;;21.45;10.75;;;4.70;99.90;;;;;;4874434;29;20060;-90
2021/03/08 08:03:21;;;;;;;24.45;12.88;;;4.80;99.90;;;;;;4876726;29;20040;-92
2021/03/08 08:05:52;;;;;;;26.75;13.95;;;4.80;99.90;;;;;;4876359;29;20499;-92
2021/03/08 08:08:19;;;;;;;27.95;14.65;;;4.80;99.90;;;;;;4873219;29;20040;-93
2021/03/08 08:10:45;;;;;;;23.70;13.05;;;4.90;99.90;;;;;;4869100;29;20032;-92
2021/03/08 08:13:12;;;;;;;27.27;13.07;;;4.90;99.90;;;;;;4869935;29;20044;-93
2021/03/08 08:15:43;;;;;;;29.95;14.57;;;4.90;99.90;;;;;;4866594;29;20436;-93
2021/03/08 08:18:13;;;;;;;29.63;14.77;;;5.00;99.90;;;;;;4869317;29;20085;-90
2021/03/08 08:20:40;;;;;;;29.80;14.45;;;4.90;99.90;;;;;;4865777;29;20092;-92
2021/03/08 08:23:07;;;;;;;28.80;13.68;;;5.00;99.90;;;;;;4854485;29;20081;-92
2021/03/08 08:25:33;;;;;;;27.38;12.82;;;5.00;99.90;;;;;;4881117;29;20044;-91
2021/03/08 08:28:00;;;;;;;22.98;13.27;;;5.00;99.90;;;;;;4880729;29;20033;-88
2021/03/08 08:30:30;;;;;;;22.77;12.30;;;5.00;99.90;;;;;;4881264;29;20033;-91
2021/03/08 08:32:58;;;;;;;25.88;12.20;;;5.00;99.90;;;;;;4884127;29;20017;-91
2021/03/08 08:35:28;;;;;;;21.27;12.20;;;5.00;99.90;;;;;;4885329;29;20071;-93
2021/03/08 08:38:06;;;;;;;20.63;11.40;;;5.00;99.90;;;;;;4880247;29;20021;-92
2021/03/08 08:40:37;;;;;;;24.10;11.25;;;5.00;99.90;;;;;;4873098;29;20092;-93
2021/03/08 08:43:14;;;;;;;19.88;11.75;;;5.10;99.90;;;;;;4873058;29;20178;-95
2021/03/08 08:45:42;;;;;;;23.08;12.40;;;5.10;99.90;;;;;;4878396;29;20033;-94
2021/03/08 08:48:08;;;;;;;21.63;11.82;;;5.10;99.90;;;;;;4877877;29;20413;-93
2021/03/08 08:50:47;;;;;;;17.27;10.45;;;5.10;99.90;;;;;;4875136;29;20064;-92
2021/03/08 08:53:34;;;;;;;19.33;10.02;;;5.10;99.90;;;;;;4863218;29;20550;-91
2021/03/08 08:56:01;;;;;;;20.25;9.65;;;5.10;99.90;;;;;;4864257;29;20048;-93
2021/03/08 08:58:34;;;;;;;19.90;11.02;;;5.20;99.90;;;;;;4884724;29;20018;-89
2021/03/08 09:01:13;;;;;;;23.20;12.65;;;5.20;99.90;;;;;;4872798;29;20028;-93
2021/03/08 09:04:07;;;;;;;19.90;11.85;;;5.20;99.90;;;;;;4872927;29;20030;-93
2021/03/08 09:06:40;;;;;;;25.67;12.00;;;5.30;99.90;;;;;;4869362;29;20034;-95
2021/03/08 09:09:06;;;;;;;24.63;12.13;;;5.30;99.90;;;;;;4869675;29;20022;-91
2021/03/08 09:11:54;;;;;;;19.98;11.82;;;5.30;99.90;;;;;;4872196;29;20041;-94
2021/03/08 09:14:37;;;;;;;17.80;10.38;;;5.30;99.90;;;;;;4866316;29;20048;-92
2021/03/08 09:17:16;;;;;;;21.60;10.65;;;5.40;99.90;;;;;;4874574;29;20033;-95
2021/03/08 09:19:46;;;;;;;24.33;12.23;;;5.50;99.90;;;;;;4875412;29;20499;-92
2021/03/08 09:22:20;;;;;;;17.77;11.13;;;5.50;99.90;;;;;;4881725;29;20025;-94
2021/03/08 09:25:09;;;;;;;20.92;11.10;;;5.50;99.90;;;;;;4891574;29;20029;-94
2021/03/08 09:27:38;;;;;;;22.92;11.55;;;5.50;99.90;;;;;;4839608;29;20097;-95
2021/03/08 09:30:11;;;;;;;21.90;11.48;;;5.50;99.90;;;;;;4831971;29;20046;-93
2021/03/08 09:33:14;;;;;;;19.48;10.95;;;5.50;99.90;;;;;;4823371;29;20126;-96
2021/03/08 09:35:58;;;;;;;18.05;9.50;;;5.50;99.90;;;;;;4799094;30;20111;-93
2021/03/08 09:38:25;;;;;;;15.98;8.68;;;5.50;99.90;;;;;;4843870;29;20103;-94
2021/03/08 09:40:59;;;;;;;23.63;9.25;;;5.50;99.90;;;;;;4838528;29;20025;-92
2021/03/08 09:43:25;;;;;;;21.95;9.07;;;5.50;99.90;;;;;;4847583;29;20045;-95
2021/03/08 09:46:04;;;;;;;19.88;9.75;;;5.50;99.90;;;;;;4816809;29;20038;-96
2021/03/08 09:48:32;;;;;;;17.95;8.73;;;5.50;99.90;;;;;;4815289;29;20489;-95
2021/03/08 09:51:11;;;;;;;15.23;8.95;;;5.60;99.90;;;;;;4812873;29;20107;-95
2021/03/08 09:53:40;;;;;;;16.23;6.03;;;5.60;99.90;;;;;;4799437;29;20039;-95
2021/03/08 09:56:08;;;;;;;8.70;4.25;;;5.60;99.90;;;;;;4820956;29;20460;-89
2021/03/08 09:58:34;;;;;;;12.55;6.32;;;5.70;99.90;;;;;;4819545;29;20046;-93
2021/03/08 10:01:10;;;;;;;14.20;6.80;;;5.80;99.90;;;;;;4807368;29;20653;-94
2021/03/08 10:03:35;;;;;;;21.65;7.47;;;5.90;99.90;;;;;;4812775;29;20034;-94
2021/03/08 10:06:01;;;;;;;16.70;7.78;;;5.90;99.90;;;;;;4873320;29;20081;-94
2021/03/08 10:08:31;;;;;;;14.60;8.05;;;5.90;99.90;;;;;;4869953;29;20029;-94
2021/03/08 10:10:57;;;;;;;18.30;8.50;;;5.90;99.90;;;;;;4875169;29;20116;-94
2021/03/08 10:13:24;;;;;;;20.50;9.75;;;5.90;99.90;;;;;;4877916;29;20036;-92
2021/03/08 10:15:51;;;;;;;15.82;8.73;;;5.90;99.90;;;;;;4879713;29;20033;-96
2021/03/08 10:18:19;;;;;;;17.80;9.88;;;5.90;99.90;;;;;;4875124;29;20487;-95
2021/03/08 10:20:55;;;;;;;17.42;8.73;;;5.90;99.90;;;;;;4875294;29;20025;-92
2021/03/08 10:23:30;;;;;;;16.40;9.23;;;5.80;99.90;;;;;;4870115;29;20025;-95
2021/03/08 10:26:04;;;;;;;20.45;9.05;;;5.80;99.90;;;;;;4869779;29;20042;-94
2021/03/08 10:28:40;;;;;;;23.83;9.98;;;5.80;99.90;;;;;;4866928;29;20029;-94
2021/03/08 10:31:19;;;;;;;23.08;11.63;;;5.70;99.90;;;;;;4865395;29;20101;-94
2021/03/08 10:33:49;;;;;;;19.90;9.80;;;5.70;99.90;;;;;;4864077;29;20022;-94
2021/03/08 10:36:19;;;;;;;17.92;9.98;;;5.70;99.90;;;;;;4870716;29;20052;-95
2021/03/08 10:38:52;;;;;;;21.73;9.57;;;5.70;99.90;;;;;;4869391;29;20033;-94
2021/03/08 10:41:20;;;;;;;21.13;9.55;;;5.70;99.90;;;;;;4866581;29;20061;-95
2021/03/08 10:43:46;;;;;;;16.88;9.38;;;5.70;99.90;;;;;;4890815;29;20101;-94
2021/03/08 10:46:12;;;;;;;20.25;9.75;;;5.70;99.90;;;;;;4873227;29;20033;-93
2021/03/08 10:48:58;;;;;;;18.55;8.98;;;5.70;99.90;;;;;;4874205;29;20049;-93
2021/03/08 10:51:24;;;;;;;19.60;10.13;;;5.70;99.90;;;;;;4883180;29;20021;-93
2021/03/08 10:53:57;;;;;;;14.88;7.68;;;5.70;99.90;;;;;;4862328;29;20029;-94
2021/03/08 10:56:23;;;;;;;17.50;8.65;;;5.70;99.90;;;;;;4883048;29;20531;-93
2021/03/08 10:58:49;;;;;;;14.00;8.18;;;5.80;99.90;;;;;;4883557;29;20392;-92
2021/03/08 11:01:14;;;;;;;14.77;7.18;;;5.80;99.90;;;;;;4880681;29;20076;-93
2021/03/08 11:03:42;;;;;;;11.98;6.63;;;5.90;99.90;;;;;;4882375;29;20072;-92
2021/03/08 11:06:12;;;;;;;12.02;6.70;;;5.90;99.90;;;;;;4873598;29;20495;-93
2021/03/08 11:08:39;;;;;;;10.75;5.78;;;6.00;99.90;;;;;;4867864;29;20064;-94
2021/03/08 11:11:20;;;;;;;11.38;6.68;;;6.10;99.90;;;;;;4876140;29;20021;-89
2021/03/08 11:13:46;;;;;;;11.52;6.50;;;6.20;99.90;;;;;;4899836;29;20041;-89
2021/03/08 11:16:13;;;;;;;13.77;7.10;;;6.20;99.90;;;;;;4896803;29;20033;-91
2021/03/08 11:18:40;;;;;;;16.38;6.93;;;6.40;99.90;;;;;;4871700;29;20037;-92
2021/03/08 11:21:26;;;;;;;12.80;7.32;;;6.50;99.90;;;;;;4860248;29;20033;-92
2021/03/08 11:23:54;;;;;;;15.38;7.68;;;6.60;99.90;;;;;;4863930;29;20037;-92
2021/03/08 11:26:21;;;;;;;20.52;7.80;;;6.70;99.90;;;;;;4850271;29;20025;-91
2021/03/08 11:28:47;;;;;;;16.15;7.60;;;6.80;99.90;;;;;;4858682;29;20045;-92
2021/03/08 11:31:25;;;;;;;14.68;7.18;;;6.80;99.90;;;;;;4873288;29;20105;-93
2021/03/08 11:33:53;;;;;;;14.23;7.97;;;6.90;99.90;;;;;;4853776;29;20036;-93
2021/03/08 11:36:33;;;;;;;20.90;9.02;;;7.00;99.90;;;;;;4853436;29;20024;-92
2021/03/08 11:39:06;;;;;;;13.15;7.88;;;7.00;99.90;;;;;;4872384;29;20018;-93
2021/03/08 11:41:45;;;;;;;16.63;7.63;;;7.00;99.90;;;;;;4855441;29;20566;-93
2021/03/08 11:44:11;;;;;;;18.88;7.95;;;7.10;99.90;;;;;;4880794;29;20029;-94
2021/03/08 11:46:36;;;;;;;16.05;8.65;;;7.10;99.90;;;;;;4888350;29;20178;-93
2021/03/08 11:49:04;;;;;;;12.73;7.43;;;7.20;99.90;;;;;;4868792;29;20148;-92
2021/03/08 11:51:29;;;;;;;13.80;7.65;;;7.20;99.90;;;;;;4885670;29;20020;-91
2021/03/08 11:53:55;;;;;;;13.43;7.20;;;7.30;99.90;;;;;;4886569;29;20052;-91
2021/03/08 11:56:25;;;;;;;11.43;7.15;;;7.30;99.90;;;;;;4887260;29;20017;-87
2021/03/08 11:58:51;;;;;;;10.32;6.13;;;7.40;99.90;;;;;;4893214;29;20014;-90
2021/03/08 12:01:17;;;;;;;17.50;8.27;;;7.40;99.90;;;;;;4899840;29;20013;-88
2021/03/08 12:03:42;;;;;;;11.50;5.82;;;7.40;99.90;;;;;;4877153;29;20029;-88
2021/03/08 12:06:08;;;;;;;16.65;7.47;;;7.50;99.90;;;;;;4882861;29;20020;-90
2021/03/08 12:08:34;;;;;;;15.23;7.38;;;7.60;99.90;;;;;;4880546;29;20020;-91
2021/03/08 12:11:02;;;;;;;17.35;7.75;;;7.60;99.90;;;;;;4896036;29;20017;-89
2021/03/08 12:13:29;;;;;;;11.52;6.75;;;7.60;99.90;;;;;;4879272;29;20040;-89
2021/03/08 12:15:54;;;;;;;13.25;7.30;;;7.60;99.90;;;;;;4884804;29;20044;-93
2021/03/08 12:18:23;;;;;;;13.50;7.35;;;7.60;99.90;;;;;;4881603;29;20033;-92
2021/03/08 12:20:50;;;;;;;15.07;7.32;;;7.70;99.90;;;;;;4875608;29;20371;-89
2021/03/08 12:23:15;;;;;;;12.88;6.18;;;7.70;99.90;;;;;;4881468;29;20013;-92
2021/03/08 12:25:41;;;;;;;22.83;12.20;;;7.70;99.90;;;;;;4891299;29;20036;-90
2021/03/08 12:28:07;;;;;;;22.92;11.30;;;7.70;99.60;;;;;;4886469;29;20086;-92
2021/03/08 12:30:35;;;;;;;16.88;9.48;;;7.60;99.50;;;;;;4860643;29;20028;-93
2021/03/08 12:33:01;;;;;;;16.38;8.38;;;7.60;99.50;;;;;;4873031;29;20089;-90
2021/03/08 12:35:28;;;;;;;18.25;8.52;;;7.60;99.50;;;;;;4871559;29;20113;-91
2021/03/08 12:37:53;;;;;;;16.77;8.52;;;7.60;99.50;;;;;;4871642;29;20109;-89
2021/03/08 12:40:19;;;;;;;13.90;8.73;;;7.70;99.70;;;;;;4881984;29;20152;-89
2021/03/08 12:42:45;;;;;;;13.18;8.48;;;7.70;99.70;;;;;;4881824;29;20040;-91
2021/03/08 12:45:11;;;;;;;16.85;7.43;;;7.80;99.70;;;;;;4879049;29;20037;-93
2021/03/08 12:47:37;;;;;;;16.95;8.93;;;7.80;99.70;;;;;;4870296;29;20013;-88
2021/03/08 12:50:03;;;;;;;16.60;9.05;;;7.90;99.40;;;;;;4879579;29;20021;-90
2021/03/08 12:52:29;;;;;;;17.23;9.27;;;8.00;99.10;;;;;;4883347;29;20014;-92